Pagina principală
METAR-TAF:

METAR-TAF

Aeroporturi :

Casino, Australia

Latitudine: 28-52-39S, longitudine: 153-03-07E, elevație: 21 m

Observații meteo curente

Raportul a fost făcut în urmă cu 38 de minute, la 10:00 UTC
Vânt calm
Temperatură 17°C
Umiditate 82%
Presiune 1018 hPa

METAR: YCAS 261000Z AUTO 00000KT //// // ////// 17/14 Q1018

Ora: 20:38 (10:38 UTC)


TAF: lipsă

Observații și prognoze meteo pentru peste 4.000 de aeroporturi (rapoarte METAR și TAF).

Stațiile disponibile sunt reprezentate pe hartă prin puncte galbene și roșii.

Țineți indicatorul mouse-ului pe punctul dorit pentru a vedea denumirea stației.

Apoi, faceți clic pentru a vedea observațiile și prognozele meteorologice.

Pentru a schimba harta: Pentru mărire, faceți clic pe butoanele verzi cu cruce neagră; pentru micșorare, pe butonul verde cu o liniuță; pentru hărți învecinate, pe săgețile verzi.


METAR-TAF: